sensor_id;sensor_type;location;lat;lon;timestamp;temperature;humidity
67722;SHT31;58309;45.292;11.820;2022-08-20T00:00:53;18.69;96.08
67722;SHT31;58309;45.292;11.820;2022-08-20T00:03:22;18.69;96.29
67722;SHT31;58309;45.292;11.820;2022-08-20T00:05:59;18.66;96.12
67722;SHT31;58309;45.292;11.820;2022-08-20T00:08:25;18.65;96.23
67722;SHT31;58309;45.292;11.820;2022-08-20T00:10:54;18.63;96.23
67722;SHT31;58309;45.292;11.820;2022-08-20T00:13:25;18.59;96.39
67722;SHT31;58309;45.292;11.820;2022-08-20T00:15:51;18.56;96.41
67722;SHT31;58309;45.292;11.820;2022-08-20T00:18:17;18.55;96.62
67722;SHT31;58309;45.292;11.820;2022-08-20T00:20:47;18.57;97.34
67722;SHT31;58309;45.292;11.820;2022-08-20T00:23:13;18.57;97.57
67722;SHT31;58309;45.292;11.820;2022-08-20T00:25:40;18.60;96.99
67722;SHT31;58309;45.292;11.820;2022-08-20T00:28:06;18.60;96.72
67722;SHT31;58309;45.292;11.820;2022-08-20T00:30:33;18.52;96.59
67722;SHT31;58309;45.292;11.820;2022-08-20T00:33:04;18.55;96.81
67722;SHT31;58309;45.292;11.820;2022-08-20T00:35:33;18.52;96.68
67722;SHT31;58309;45.292;11.820;2022-08-20T00:37:59;18.49;96.63
67722;SHT31;58309;45.292;11.820;2022-08-20T00:40:28;18.46;96.79
67722;SHT31;58309;45.292;11.820;2022-08-20T00:42:57;18.46;96.90
67722;SHT31;58309;45.292;11.820;2022-08-20T00:45:25;18.39;96.81
67722;SHT31;58309;45.292;11.820;2022-08-20T00:47:51;18.35;96.94
67722;SHT31;58309;45.292;11.820;2022-08-20T00:50:35;18.34;96.96
67722;SHT31;58309;45.292;11.820;2022-08-20T00:53:03;18.32;97.16
67722;SHT31;58309;45.292;11.820;2022-08-20T00:55:30;18.31;97.35
67722;SHT31;58309;45.292;11.820;2022-08-20T00:57:59;18.31;97.03
67722;SHT31;58309;45.292;11.820;2022-08-20T01:00:33;18.31;97.30
67722;SHT31;58309;45.292;11.820;2022-08-20T01:03:03;18.31;97.21
67722;SHT31;58309;45.292;11.820;2022-08-20T01:05:29;18.29;97.40
67722;SHT31;58309;45.292;11.820;2022-08-20T01:07:55;18.25;97.20
67722;SHT31;58309;45.292;11.820;2022-08-20T01:10:25;18.21;97.24
67722;SHT31;58309;45.292;11.820;2022-08-20T01:12:55;18.19;97.42
67722;SHT31;58309;45.292;11.820;2022-08-20T01:15:23;18.16;97.27
67722;SHT31;58309;45.292;11.820;2022-08-20T01:17:53;18.14;97.60
67722;SHT31;58309;45.292;11.820;2022-08-20T01:20:25;18.16;98.29
67722;SHT31;58309;45.292;11.820;2022-08-20T01:28:24;18.18;98.27
67722;SHT31;58309;45.292;11.820;2022-08-20T01:30:50;18.16;98.12
67722;SHT31;58309;45.292;11.820;2022-08-20T01:33:17;18.11;97.86
67722;SHT31;58309;45.292;11.820;2022-08-20T01:35:43;18.04;97.82
67722;SHT31;58309;45.292;11.820;2022-08-20T01:38:10;17.98;97.81
67722;SHT31;58309;45.292;11.820;2022-08-20T01:43:09;17.98;98.48
67722;SHT31;58309;45.292;11.820;2022-08-20T01:45:34;18.02;98.73
67722;SHT31;58309;45.292;11.820;2022-08-20T01:48:01;17.98;98.52
67722;SHT31;58309;45.292;11.820;2022-08-20T01:50:28;17.97;98.28
67722;SHT31;58309;45.292;11.820;2022-08-20T01:53:16;17.93;98.35
67722;SHT31;58309;45.292;11.820;2022-08-20T01:55:42;17.98;98.61
67722;SHT31;58309;45.292;11.820;2022-08-20T01:58:08;18.02;99.12
67722;SHT31;58309;45.292;11.820;2022-08-20T02:00:33;18.08;99.06
67722;SHT31;58309;45.292;11.820;2022-08-20T02:03:00;18.11;99.00
67722;SHT31;58309;45.292;11.820;2022-08-20T02:05:28;18.12;98.92
67722;SHT31;58309;45.292;11.820;2022-08-20T02:07:54;18.11;98.61
67722;SHT31;58309;45.292;11.820;2022-08-20T02:10:19;18.05;98.44
67722;SHT31;58309;45.292;11.820;2022-08-20T02:12:45;18.04;98.27
67722;SHT31;58309;45.292;11.820;2022-08-20T02:15:11;17.98;98.14
67722;SHT31;58309;45.292;11.820;2022-08-20T02:17:38;17.98;98.41
67722;SHT31;58309;45.292;11.820;2022-08-20T02:20:19;17.97;98.62
67722;SHT31;58309;45.292;11.820;2022-08-20T02:22:51;17.98;98.70
67722;SHT31;58309;45.292;11.820;2022-08-20T02:25:20;17.93;98.40
67722;SHT31;58309;45.292;11.820;2022-08-20T02:27:48;17.90;98.47
67722;SHT31;58309;45.292;11.820;2022-08-20T02:30:21;17.94;98.95
67722;SHT31;58309;45.292;11.820;2022-08-20T02:32:48;17.91;98.84
67722;SHT31;58309;45.292;11.820;2022-08-20T02:35:14;17.88;98.81
67722;SHT31;58309;45.292;11.820;2022-08-20T02:37:41;17.87;98.62
67722;SHT31;58309;45.292;11.820;2022-08-20T02:40:10;17.85;98.59
67722;SHT31;58309;45.292;11.820;2022-08-20T02:42:36;17.83;98.79
67722;SHT31;58309;45.292;11.820;2022-08-20T02:45:04;17.85;98.82
67722;SHT31;58309;45.292;11.820;2022-08-20T02:47:31;17.87;98.72
67722;SHT31;58309;45.292;11.820;2022-08-20T02:49:56;17.87;98.81
67722;SHT31;58309;45.292;11.820;2022-08-20T02:52:24;17.87;98.95
67722;SHT31;58309;45.292;11.820;2022-08-20T02:54:50;17.85;98.80
67722;SHT31;58309;45.292;11.820;2022-08-20T02:57:18;17.80;98.80
67722;SHT31;58309;45.292;11.820;2022-08-20T02:59:47;17.78;98.85
67722;SHT31;58309;45.292;11.820;2022-08-20T03:02:14;17.81;99.09
67722;SHT31;58309;45.292;11.820;2022-08-20T03:04:40;17.83;98.78
67722;SHT31;58309;45.292;11.820;2022-08-20T03:07:07;17.77;98.50
67722;SHT31;58309;45.292;11.820;2022-08-20T03:09:35;17.73;98.39
67722;SHT31;58309;45.292;11.820;2022-08-20T03:12:00;17.69;98.62
67722;SHT31;58309;45.292;11.820;2022-08-20T03:14:27;17.62;98.50
67722;SHT31;58309;45.292;11.820;2022-08-20T03:16:53;17.66;98.86
67722;SHT31;58309;45.292;11.820;2022-08-20T03:19:18;17.63;98.83
67722;SHT31;58309;45.292;11.820;2022-08-20T03:21:44;17.56;98.54
67722;SHT31;58309;45.292;11.820;2022-08-20T03:24:09;17.49;98.80
67722;SHT31;58309;45.292;11.820;2022-08-20T03:26:35;17.46;98.69
67722;SHT31;58309;45.292;11.820;2022-08-20T03:29:01;17.43;98.78
67722;SHT31;58309;45.292;11.820;2022-08-20T03:31:27;17.49;99.28
67722;SHT31;58309;45.292;11.820;2022-08-20T03:33:54;17.51;99.66
67722;SHT31;58309;45.292;11.820;2022-08-20T03:36:24;17.51;99.42
67722;SHT31;58309;45.292;11.820;2022-08-20T03:38:50;17.50;99.37
67722;SHT31;58309;45.292;11.820;2022-08-20T03:41:15;17.51;99.36
67722;SHT31;58309;45.292;11.820;2022-08-20T03:43:41;17.57;99.65
67722;SHT31;58309;45.292;11.820;2022-08-20T03:46:07;17.63;99.71
67722;SHT31;58309;45.292;11.820;2022-08-20T03:48:33;17.60;99.42
67722;SHT31;58309;45.292;11.820;2022-08-20T03:50:58;17.67;99.71
67722;SHT31;58309;45.292;11.820;2022-08-20T03:53:26;17.73;99.90
67722;SHT31;58309;45.292;11.820;2022-08-20T03:55:57;17.81;99.38
67722;SHT31;58309;45.292;11.820;2022-08-20T03:58:26;17.84;98.95
67722;SHT31;58309;45.292;11.820;2022-08-20T04:00:52;17.84;98.70
67722;SHT31;58309;45.292;11.820;2022-08-20T04:03:18;17.88;98.51
67722;SHT31;58309;45.292;11.820;2022-08-20T04:05:44;17.85;98.43
67722;SHT31;58309;45.292;11.820;2022-08-20T04:08:17;17.84;98.49
67722;SHT31;58309;45.292;11.820;2022-08-20T04:10:44;17.75;98.37
67722;SHT31;58309;45.292;11.820;2022-08-20T04:13:10;17.69;98.30
67722;SHT31;58309;45.292;11.820;2022-08-20T04:15:36;17.64;98.46
67722;SHT31;58309;45.292;11.820;2022-08-20T04:18:05;17.57;98.44
67722;SHT31;58309;45.292;11.820;2022-08-20T04:20:33;17.53;98.53
67722;SHT31;58309;45.292;11.820;2022-08-20T04:22:58;17.56;99.31
67722;SHT31;58309;45.292;11.820;2022-08-20T04:25:25;17.57;99.25
67722;SHT31;58309;45.292;11.820;2022-08-20T04:27:50;17.57;99.36
67722;SHT31;58309;45.292;11.820;2022-08-20T04:30:18;17.54;99.26
67722;SHT31;58309;45.292;11.820;2022-08-20T04:32:46;17.59;99.33
67722;SHT31;58309;45.292;11.820;2022-08-20T04:35:13;17.63;99.42
67722;SHT31;58309;45.292;11.820;2022-08-20T04:37:41;17.66;99.25
67722;SHT31;58309;45.292;11.820;2022-08-20T04:40:10;17.70;99.27
67722;SHT31;58309;45.292;11.820;2022-08-20T04:42:54;17.67;98.98
67722;SHT31;58309;45.292;11.820;2022-08-20T04:45:20;17.71;99.25
67722;SHT31;58309;45.292;11.820;2022-08-20T04:47:47;17.74;99.24
67722;SHT31;58309;45.292;11.820;2022-08-20T04:50:14;17.70;99.15
67722;SHT31;58309;45.292;11.820;2022-08-20T04:52:40;17.80;99.20
67722;SHT31;58309;45.292;11.820;2022-08-20T04:55:06;17.84;99.11
67722;SHT31;58309;45.292;11.820;2022-08-20T04:57:32;17.87;98.96
67722;SHT31;58309;45.292;11.820;2022-08-20T05:00:00;17.94;99.20
67722;SHT31;58309;45.292;11.820;2022-08-20T05:02:26;17.98;98.86
67722;SHT31;58309;45.292;11.820;2022-08-20T05:04:51;18.04;98.64
67722;SHT31;58309;45.292;11.820;2022-08-20T05:07:17;18.16;98.66
67722;SHT31;58309;45.292;11.820;2022-08-20T05:09:43;18.24;98.46
67722;SHT31;58309;45.292;11.820;2022-08-20T05:12:08;18.25;98.42
67722;SHT31;58309;45.292;11.820;2022-08-20T05:14:34;18.29;98.16
67722;SHT31;58309;45.292;11.820;2022-08-20T05:17:04;18.31;98.05
67722;SHT31;58309;45.292;11.820;2022-08-20T05:19:33;18.38;98.14
67722;SHT31;58309;45.292;11.820;2022-08-20T05:21:59;18.46;97.70
67722;SHT31;58309;45.292;11.820;2022-08-20T05:24:25;18.56;97.97
67722;SHT31;58309;45.292;11.820;2022-08-20T05:26:50;18.73;97.56
67722;SHT31;58309;45.292;11.820;2022-08-20T05:29:18;18.84;97.05
67722;SHT31;58309;45.292;11.820;2022-08-20T05:31:45;19.06;97.19
67722;SHT31;58309;45.292;11.820;2022-08-20T05:34:11;19.21;95.89
67722;SHT31;58309;45.292;11.820;2022-08-20T05:36:43;19.39;95.68
67722;SHT31;58309;45.292;11.820;2022-08-20T05:39:10;19.58;95.64
67722;SHT31;58309;45.292;11.820;2022-08-20T05:41:36;19.71;94.94
67722;SHT31;58309;45.292;11.820;2022-08-20T05:44:03;19.83;94.49
67722;SHT31;58309;45.292;11.820;2022-08-20T05:46:31;19.90;93.95
67722;SHT31;58309;45.292;11.820;2022-08-20T05:48:57;20.02;93.04
67722;SHT31;58309;45.292;11.820;2022-08-20T05:51:22;20.10;93.48
67722;SHT31;58309;45.292;11.820;2022-08-20T05:53:48;20.13;93.02
67722;SHT31;58309;45.292;11.820;2022-08-20T05:56:13;20.27;93.42
67722;SHT31;58309;45.292;11.820;2022-08-20T05:58:39;20.40;93.64
67722;SHT31;58309;45.292;11.820;2022-08-20T06:01:04;20.50;93.18
67722;SHT31;58309;45.292;11.820;2022-08-20T06:03:30;20.50;92.55
67722;SHT31;58309;45.292;11.820;2022-08-20T06:06:27;20.61;92.53
67722;SHT31;58309;45.292;11.820;2022-08-20T06:08:53;20.64;92.55
67722;SHT31;58309;45.292;11.820;2022-08-20T06:11:19;20.63;92.53
67722;SHT31;58309;45.292;11.820;2022-08-20T06:13:44;20.63;93.19
67722;SHT31;58309;45.292;11.820;2022-08-20T06:16:10;20.65;92.26
67722;SHT31;58309;45.292;11.820;2022-08-20T06:18:35;20.65;92.72
67722;SHT31;58309;45.292;11.820;2022-08-20T06:21:01;20.61;92.58
67722;SHT31;58309;45.292;11.820;2022-08-20T06:23:26;20.55;93.47
67722;SHT31;58309;45.292;11.820;2022-08-20T06:25:52;20.53;93.74
67722;SHT31;58309;45.292;11.820;2022-08-20T06:28:17;20.51;93.55
67722;SHT31;58309;45.292;11.820;2022-08-20T06:30:43;20.54;93.28
67722;SHT31;58309;45.292;11.820;2022-08-20T06:33:08;20.54;92.26
67722;SHT31;58309;45.292;11.820;2022-08-20T06:35:34;20.67;92.82
67722;SHT31;58309;45.292;11.820;2022-08-20T06:38:02;20.88;92.16
67722;SHT31;58309;45.292;11.820;2022-08-20T06:40:30;21.11;90.65
67722;SHT31;58309;45.292;11.820;2022-08-20T06:42:56;21.32;89.51
67722;SHT31;58309;45.292;11.820;2022-08-20T06:45:28;21.41;88.52
67722;SHT31;58309;45.292;11.820;2022-08-20T06:47:56;21.62;88.28
67722;SHT31;58309;45.292;11.820;2022-08-20T06:50:31;21.73;88.06
67722;SHT31;58309;45.292;11.820;2022-08-20T06:52:58;21.93;88.38
67722;SHT31;58309;45.292;11.820;2022-08-20T06:55:24;22.05;86.73
67722;SHT31;58309;45.292;11.820;2022-08-20T06:58:01;22.18;87.14
67722;SHT31;58309;45.292;11.820;2022-08-20T07:00:34;22.30;85.66
67722;SHT31;58309;45.292;11.820;2022-08-20T07:03:01;22.35;86.32
67722;SHT31;58309;45.292;11.820;2022-08-20T07:05:28;22.35;84.68
67722;SHT31;58309;45.292;11.820;2022-08-20T07:07:54;22.37;83.73
67722;SHT31;58309;45.292;11.820;2022-08-20T07:10:21;22.47;83.39
67722;SHT31;58309;45.292;11.820;2022-08-20T07:12:47;22.65;84.69
67722;SHT31;58309;45.292;11.820;2022-08-20T07:15:14;22.92;83.93
67722;SHT31;58309;45.292;11.820;2022-08-20T07:17:40;23.26;81.99
67722;SHT31;58309;45.292;11.820;2022-08-20T07:20:08;23.50;80.19
67722;SHT31;58309;45.292;11.820;2022-08-20T07:22:35;23.68;79.89
67722;SHT31;58309;45.292;11.820;2022-08-20T07:25:06;23.79;78.30
67722;SHT31;58309;45.292;11.820;2022-08-20T07:27:33;23.97;78.22
67722;SHT31;58309;45.292;11.820;2022-08-20T07:29:58;24.16;78.39
67722;SHT31;58309;45.292;11.820;2022-08-20T07:32:44;24.33;78.24
67722;SHT31;58309;45.292;11.820;2022-08-20T07:35:13;24.51;77.08
67722;SHT31;58309;45.292;11.820;2022-08-20T07:37:45;24.56;75.86
67722;SHT31;58309;45.292;11.820;2022-08-20T07:40:16;24.52;75.30
67722;SHT31;58309;45.292;11.820;2022-08-20T07:42:42;24.55;74.90
67722;SHT31;58309;45.292;11.820;2022-08-20T07:45:12;24.69;75.18
67722;SHT31;58309;45.292;11.820;2022-08-20T07:47:41;24.83;76.10
67722;SHT31;58309;45.292;11.820;2022-08-20T07:50:10;24.90;75.79
67722;SHT31;58309;45.292;11.820;2022-08-20T07:52:36;24.84;76.22
67722;SHT31;58309;45.292;11.820;2022-08-20T07:55:07;24.77;75.83
67722;SHT31;58309;45.292;11.820;2022-08-20T07:57:34;24.69;76.52
67722;SHT31;58309;45.292;11.820;2022-08-20T07:59:59;24.52;75.44
67722;SHT31;58309;45.292;11.820;2022-08-20T08:02:26;24.53;76.23
67722;SHT31;58309;45.292;11.820;2022-08-20T08:04:52;24.67;76.48
67722;SHT31;58309;45.292;11.820;2022-08-20T08:07:18;24.73;77.11
67722;SHT31;58309;45.292;11.820;2022-08-20T08:09:45;24.76;76.36
67722;SHT31;58309;45.292;11.820;2022-08-20T08:12:12;24.66;75.02
67722;SHT31;58309;45.292;11.820;2022-08-20T08:14:40;24.70;75.72
67722;SHT31;58309;45.292;11.820;2022-08-20T08:17:08;24.72;75.46
67722;SHT31;58309;45.292;11.820;2022-08-20T08:19:45;24.88;75.46
67722;SHT31;58309;45.292;11.820;2022-08-20T08:22:14;24.98;74.50
67722;SHT31;58309;45.292;11.820;2022-08-20T08:24:42;25.23;75.83
67722;SHT31;58309;45.292;11.820;2022-08-20T08:27:09;25.62;73.13
67722;SHT31;58309;45.292;11.820;2022-08-20T08:29:35;26.60;68.62
67722;SHT31;58309;45.292;11.820;2022-08-20T08:32:04;27.82;65.51
67722;SHT31;58309;45.292;11.820;2022-08-20T08:34:31;28.69;60.68
67722;SHT31;58309;45.292;11.820;2022-08-20T08:36:57;29.80;57.78
67722;SHT31;58309;45.292;11.820;2022-08-20T08:39:23;29.89;58.54
67722;SHT31;58309;45.292;11.820;2022-08-20T08:41:50;30.56;57.17
67722;SHT31;58309;45.292;11.820;2022-08-20T08:44:20;30.76;57.69
67722;SHT31;58309;45.292;11.820;2022-08-20T08:46:50;31.59;55.42
67722;SHT31;58309;45.292;11.820;2022-08-20T08:49:24;32.06;53.46
67722;SHT31;58309;45.292;11.820;2022-08-20T08:51:54;32.85;51.06
67722;SHT31;58309;45.292;11.820;2022-08-20T08:54:23;32.65;50.82
67722;SHT31;58309;45.292;11.820;2022-08-20T08:56:50;32.41;50.07
67722;SHT31;58309;45.292;11.820;2022-08-20T08:59:18;32.45;49.80
67722;SHT31;58309;45.292;11.820;2022-08-20T09:01:46;32.92;49.69
67722;SHT31;58309;45.292;11.820;2022-08-20T09:04:14;33.36;51.11
67722;SHT31;58309;45.292;11.820;2022-08-20T09:06:41;33.99;51.10
67722;SHT31;58309;45.292;11.820;2022-08-20T09:09:18;34.36;47.52
67722;SHT31;58309;45.292;11.820;2022-08-20T09:11:53;34.37;46.68
67722;SHT31;58309;45.292;11.820;2022-08-20T09:14:20;34.64;48.19
67722;SHT31;58309;45.292;11.820;2022-08-20T09:16:49;34.98;45.73
67722;SHT31;58309;45.292;11.820;2022-08-20T09:19:14;34.98;46.26
67722;SHT31;58309;45.292;11.820;2022-08-20T09:21:40;35.30;45.09
67722;SHT31;58309;45.292;11.820;2022-08-20T09:24:05;34.81;44.70
67722;SHT31;58309;45.292;11.820;2022-08-20T09:26:31;34.67;45.04
67722;SHT31;58309;45.292;11.820;2022-08-20T09:28:56;34.87;44.36
67722;SHT31;58309;45.292;11.820;2022-08-20T09:31:22;35.40;44.79
67722;SHT31;58309;45.292;11.820;2022-08-20T09:33:49;35.49;44.63
67722;SHT31;58309;45.292;11.820;2022-08-20T09:36:15;35.67;45.89
67722;SHT31;58309;45.292;11.820;2022-08-20T09:38:41;35.67;42.93
67722;SHT31;58309;45.292;11.820;2022-08-20T09:41:07;35.30;42.77
67722;SHT31;58309;45.292;11.820;2022-08-20T09:43:33;35.13;45.44
67722;SHT31;58309;45.292;11.820;2022-08-20T09:45:59;35.18;43.09
67722;SHT31;58309;45.292;11.820;2022-08-20T09:48:25;35.42;41.74
67722;SHT31;58309;45.292;11.820;2022-08-20T09:50:50;35.54;44.51
67722;SHT31;58309;45.292;11.820;2022-08-20T09:53:17;35.73;42.25
67722;SHT31;58309;45.292;11.820;2022-08-20T09:55:47;36.14;42.04
67722;SHT31;58309;45.292;11.820;2022-08-20T09:58:20;36.38;43.28
67722;SHT31;58309;45.292;11.820;2022-08-20T10:00:47;36.51;40.49
67722;SHT31;58309;45.292;11.820;2022-08-20T10:03:13;36.18;42.41
67722;SHT31;58309;45.292;11.820;2022-08-20T10:05:39;36.17;38.22
67722;SHT31;58309;45.292;11.820;2022-08-20T10:08:08;37.09;39.03
67722;SHT31;58309;45.292;11.820;2022-08-20T10:10:35;37.16;40.00
67722;SHT31;58309;45.292;11.820;2022-08-20T10:13:01;37.02;39.51
67722;SHT31;58309;45.292;11.820;2022-08-20T10:15:28;37.07;41.22
67722;SHT31;58309;45.292;11.820;2022-08-20T10:17:54;37.29;38.23
67722;SHT31;58309;45.292;11.820;2022-08-20T10:20:21;37.51;39.50
67722;SHT31;58309;45.292;11.820;2022-08-20T10:22:47;36.90;36.75
67722;SHT31;58309;45.292;11.820;2022-08-20T10:25:12;36.83;36.66
67722;SHT31;58309;45.292;11.820;2022-08-20T10:27:38;37.10;40.11
67722;SHT31;58309;45.292;11.820;2022-08-20T10:30:04;37.40;36.85
67722;SHT31;58309;45.292;11.820;2022-08-20T10:32:30;37.16;37.18
67722;SHT31;58309;45.292;11.820;2022-08-20T10:34:56;37.41;36.99
67722;SHT31;58309;45.292;11.820;2022-08-20T10:37:23;37.78;36.85
67722;SHT31;58309;45.292;11.820;2022-08-20T10:39:50;38.00;36.80
67722;SHT31;58309;45.292;11.820;2022-08-20T10:42:16;37.95;36.28
67722;SHT31;58309;45.292;11.820;2022-08-20T10:44:42;38.45;36.17
67722;SHT31;58309;45.292;11.820;2022-08-20T10:49:42;39.28;34.37
67722;SHT31;58309;45.292;11.820;2022-08-20T10:52:08;39.45;37.43
67722;SHT31;58309;45.292;11.820;2022-08-20T10:54:33;39.78;35.41
67722;SHT31;58309;45.292;11.820;2022-08-20T10:57:02;38.67;34.37
67722;SHT31;58309;45.292;11.820;2022-08-20T10:59:29;39.43;35.30
67722;SHT31;58309;45.292;11.820;2022-08-20T11:01:57;37.15;39.37
67722;SHT31;58309;45.292;11.820;2022-08-20T11:04:23;38.63;35.63
67722;SHT31;58309;45.292;11.820;2022-08-20T11:06:48;39.65;35.86
67722;SHT31;58309;45.292;11.820;2022-08-20T11:09:14;38.72;36.08
67722;SHT31;58309;45.292;11.820;2022-08-20T11:11:41;38.92;35.59
67722;SHT31;58309;45.292;11.820;2022-08-20T11:14:07;38.42;36.97
67722;SHT31;58309;45.292;11.820;2022-08-20T11:16:32;38.70;36.71
67722;SHT31;58309;45.292;11.820;2022-08-20T11:18:58;39.21;37.42
67722;SHT31;58309;45.292;11.820;2022-08-20T11:21:24;39.93;33.67
67722;SHT31;58309;45.292;11.820;2022-08-20T11:23:49;40.73;32.87
67722;SHT31;58309;45.292;11.820;2022-08-20T11:26:22;40.13;31.83
67722;SHT31;58309;45.292;11.820;2022-08-20T11:28:49;39.89;31.56
67722;SHT31;58309;45.292;11.820;2022-08-20T11:31:14;39.64;33.06
67722;SHT31;58309;45.292;11.820;2022-08-20T11:33:40;39.95;33.87
67722;SHT31;58309;45.292;11.820;2022-08-20T11:36:05;39.89;32.85
67722;SHT31;58309;45.292;11.820;2022-08-20T11:38:31;40.02;34.07
67722;SHT31;58309;45.292;11.820;2022-08-20T11:40:57;39.71;33.60
67722;SHT31;58309;45.292;11.820;2022-08-20T11:43:23;38.90;36.61
67722;SHT31;58309;45.292;11.820;2022-08-20T11:45:51;39.30;35.52
67722;SHT31;58309;45.292;11.820;2022-08-20T11:48:17;39.93;34.15
67722;SHT31;58309;45.292;11.820;2022-08-20T11:50:43;40.84;32.08
67722;SHT31;58309;45.292;11.820;2022-08-20T11:53:09;40.94;30.36
67722;SHT31;58309;45.292;11.820;2022-08-20T11:55:35;41.39;33.00
67722;SHT31;58309;45.292;11.820;2022-08-20T11:58:01;40.98;32.18
67722;SHT31;58309;45.292;11.820;2022-08-20T12:00:28;41.27;29.84
67722;SHT31;58309;45.292;11.820;2022-08-20T12:02:54;40.80;31.06
67722;SHT31;58309;45.292;11.820;2022-08-20T12:05:20;40.63;31.05
67722;SHT31;58309;45.292;11.820;2022-08-20T12:07:46;40.20;30.33
67722;SHT31;58309;45.292;11.820;2022-08-20T12:10:12;40.37;32.37
67722;SHT31;58309;45.292;11.820;2022-08-20T12:12:38;39.62;34.16
67722;SHT31;58309;45.292;11.820;2022-08-20T12:15:05;39.45;32.05
67722;SHT31;58309;45.292;11.820;2022-08-20T12:17:31;38.97;31.71
67722;SHT31;58309;45.292;11.820;2022-08-20T12:19:59;39.35;32.29
67722;SHT31;58309;45.292;11.820;2022-08-20T12:22:25;39.48;32.35
67722;SHT31;58309;45.292;11.820;2022-08-20T12:24:54;38.65;33.29
67722;SHT31;58309;45.292;11.820;2022-08-20T12:27:26;38.05;34.22
67722;SHT31;58309;45.292;11.820;2022-08-20T12:29:54;36.68;36.23
67722;SHT31;58309;45.292;11.820;2022-08-20T12:32:21;36.20;38.42
67722;SHT31;58309;45.292;11.820;2022-08-20T12:34:47;35.33;38.80
67722;SHT31;58309;45.292;11.820;2022-08-20T12:37:17;34.84;37.96
67722;SHT31;58309;45.292;11.820;2022-08-20T12:39:46;33.94;41.39
67722;SHT31;58309;45.292;11.820;2022-08-20T12:42:12;33.77;39.27
67722;SHT31;58309;45.292;11.820;2022-08-20T12:44:38;33.33;39.70
67722;SHT31;58309;45.292;11.820;2022-08-20T12:49:36;32.10;42.09
67722;SHT31;58309;45.292;11.820;2022-08-20T12:52:02;31.99;42.72
67722;SHT31;58309;45.292;11.820;2022-08-20T12:54:27;31.93;49.12
67722;SHT31;58309;45.292;11.820;2022-08-20T12:56:53;31.86;43.52
67722;SHT31;58309;45.292;11.820;2022-08-20T12:59:21;31.75;43.69
67722;SHT31;58309;45.292;11.820;2022-08-20T13:01:48;31.69;44.78
67722;SHT31;58309;45.292;11.820;2022-08-20T13:04:13;31.66;46.39
67722;SHT31;58309;45.292;11.820;2022-08-20T13:06:39;31.66;46.67
67722;SHT31;58309;45.292;11.820;2022-08-20T13:09:04;31.49;45.82
67722;SHT31;58309;45.292;11.820;2022-08-20T13:11:29;31.37;45.65
67722;SHT31;58309;45.292;11.820;2022-08-20T13:13:55;31.45;45.47
67722;SHT31;58309;45.292;11.820;2022-08-20T13:16:21;31.59;43.61
67722;SHT31;58309;45.292;11.820;2022-08-20T13:18:47;31.63;43.08
67722;SHT31;58309;45.292;11.820;2022-08-20T13:21:12;31.62;46.00
67722;SHT31;58309;45.292;11.820;2022-08-20T13:23:38;31.39;44.45
67722;SHT31;58309;45.292;11.820;2022-08-20T13:26:03;31.34;44.33
67722;SHT31;58309;45.292;11.820;2022-08-20T13:28:30;31.28;46.20
67722;SHT31;58309;45.292;11.820;2022-08-20T13:30:55;31.10;45.33
67722;SHT31;58309;45.292;11.820;2022-08-20T13:33:21;30.87;45.81
67722;SHT31;58309;45.292;11.820;2022-08-20T13:35:47;30.72;47.04
67722;SHT31;58309;45.292;11.820;2022-08-20T13:38:12;30.67;49.63
67722;SHT31;58309;45.292;11.820;2022-08-20T13:40:38;30.52;50.30
67722;SHT31;58309;45.292;11.820;2022-08-20T13:43:03;30.29;49.66
67722;SHT31;58309;45.292;11.820;2022-08-20T13:45:29;30.16;47.77
67722;SHT31;58309;45.292;11.820;2022-08-20T13:47:54;30.15;48.56
67722;SHT31;58309;45.292;11.820;2022-08-20T13:50:23;30.46;46.87
67722;SHT31;58309;45.292;11.820;2022-08-20T13:52:49;30.70;44.30
67722;SHT31;58309;45.292;11.820;2022-08-20T13:55:17;31.04;46.14
67722;SHT31;58309;45.292;11.820;2022-08-20T13:57:44;31.25;44.56
67722;SHT31;58309;45.292;11.820;2022-08-20T14:00:13;31.38;46.66
67722;SHT31;58309;45.292;11.820;2022-08-20T14:02:40;31.35;44.35
67722;SHT31;58309;45.292;11.820;2022-08-20T14:05:06;31.18;46.59
67722;SHT31;58309;45.292;11.820;2022-08-20T14:07:32;30.98;46.46
67722;SHT31;58309;45.292;11.820;2022-08-20T14:10:13;30.87;48.31
67722;SHT31;58309;45.292;11.820;2022-08-20T14:12:39;30.83;48.28
67722;SHT31;58309;45.292;11.820;2022-08-20T14:15:07;31.08;47.53
67722;SHT31;58309;45.292;11.820;2022-08-20T14:17:35;31.48;48.12
67722;SHT31;58309;45.292;11.820;2022-08-20T14:20:17;31.72;46.41
67722;SHT31;58309;45.292;11.820;2022-08-20T14:22:44;31.97;45.30
67722;SHT31;58309;45.292;11.820;2022-08-20T14:25:12;32.16;43.76
67722;SHT31;58309;45.292;11.820;2022-08-20T14:27:38;32.24;46.73
67722;SHT31;58309;45.292;11.820;2022-08-20T14:30:05;32.31;44.05
67722;SHT31;58309;45.292;11.820;2022-08-20T14:32:31;32.16;45.67
67722;SHT31;58309;45.292;11.820;2022-08-20T14:34:57;32.06;45.25
67722;SHT31;58309;45.292;11.820;2022-08-20T14:37:34;32.13;45.69
67722;SHT31;58309;45.292;11.820;2022-08-20T14:40:06;32.20;45.75
67722;SHT31;58309;45.292;11.820;2022-08-20T14:42:33;32.16;44.71
67722;SHT31;58309;45.292;11.820;2022-08-20T14:44:59;32.23;48.59
67722;SHT31;58309;45.292;11.820;2022-08-20T14:47:39;32.27;44.46
67722;SHT31;58309;45.292;11.820;2022-08-20T14:50:08;32.20;46.51
67722;SHT31;58309;45.292;11.820;2022-08-20T14:52:34;32.14;46.12
67722;SHT31;58309;45.292;11.820;2022-08-20T14:55:07;31.99;47.30
67722;SHT31;58309;45.292;11.820;2022-08-20T14:57:33;31.83;45.79
67722;SHT31;58309;45.292;11.820;2022-08-20T15:00:00;31.76;47.79
67722;SHT31;58309;45.292;11.820;2022-08-20T15:02:25;31.86;48.66
67722;SHT31;58309;45.292;11.820;2022-08-20T15:04:51;32.16;47.04
67722;SHT31;58309;45.292;11.820;2022-08-20T15:07:26;32.23;47.54
67722;SHT31;58309;45.292;11.820;2022-08-20T15:09:53;32.14;44.72
67722;SHT31;58309;45.292;11.820;2022-08-20T15:12:18;31.88;46.62
67722;SHT31;58309;45.292;11.820;2022-08-20T15:14:44;31.78;45.67
67722;SHT31;58309;45.292;11.820;2022-08-20T15:17:11;31.68;46.40
67722;SHT31;58309;45.292;11.820;2022-08-20T15:19:41;31.45;47.17
67722;SHT31;58309;45.292;11.820;2022-08-20T15:22:07;31.37;46.88
67722;SHT31;58309;45.292;11.820;2022-08-20T15:24:32;31.37;47.97
67722;SHT31;58309;45.292;11.820;2022-08-20T15:26:58;31.34;47.95
67722;SHT31;58309;45.292;11.820;2022-08-20T15:29:23;31.44;47.35